CheckWX is a tool to help pilots better visualize weather data.  It is not intended as a substitute for an official pre-flight weather briefing.

18:32:46 UTC

CYSY METAR
Sachs Harbour (David Nasogaluak Jr. Saaryuaq) Airport
Sachs Harbour, Canada
Current

33 mins ago

CYSY 221800Z 33016KT 1SM BR DRSN FEW005 FEW210 M33/M37 A3021 RMK FG1ST1CI1 CI TR SLP249
Observed
Feb-22 @ 18:00 UTC
Wind
  • 330° at 16 KTS
Visibility
1 SM
Flight Rules
IFR
Conditions
Mist, Low drifting Snow
Cloud Levels
  • Few at 500' AGL
  • Few at 21,000' AGL
Temperature
-33°C / -27°F
Dewpoint
-37°C / -35°F
Humidity
67%
Altimeter
30.21" Hg
Pressure
1024.9 hPa
Previous

2 hours ago

CYSY 221700Z 33020KT 1SM BR DRSN FEW005 FEW210 M33/M37 A3018 RMK FG1ST1CI1 ST TR VIS VRB 1/2 TO 2 MILES SLP237
Observed
Feb-22 @ 17:00 UTC
Wind
  • 330° at 20 KTS
Visibility
1 SM
Flight Rules
IFR
Conditions
Mist, Low drifting Snow
Cloud Levels
  • Few at 500' AGL
  • Few at 21,000' AGL
Temperature
-33°C / -27°F
Dewpoint
-37°C / -35°F
Humidity
67%
Altimeter
30.18" Hg
Pressure
1023.7 hPa
Previous

2 hours ago

CYSY 221624Z 33018KT 2SM BR DRSN FEW210 M33/M37 A3016 RMK FG1CI1 CI TR SLP231
Observed
Feb-22 @ 16:24 UTC
Wind
  • 330° at 18 KTS
Visibility
2 SM
Flight Rules
IFR
Conditions
Mist, Low drifting Snow
Cloud Levels
  • Few at 21,000' AGL
Temperature
-33°C / -27°F
Dewpoint
-37°C / -35°F
Humidity
67%
Altimeter
30.16" Hg
Pressure
1023.1 hPa